sensor_id;sensor_type;location;lat;lon;timestamp;P1;durP1;ratioP1;P2;durP2;ratioP2
57627;SDS011;43451;49.060;10.616;2023-11-21T00:00:54;3.80;;;1.40;;
57627;SDS011;43451;49.060;10.616;2023-11-21T00:03:20;2.97;;;1.20;;
57627;SDS011;43451;49.060;10.616;2023-11-21T00:05:45;3.72;;;1.20;;
57627;SDS011;43451;49.060;10.616;2023-11-21T00:08:11;3.83;;;1.60;;
57627;SDS011;43451;49.060;10.616;2023-11-21T00:10:36;3.08;;;1.42;;
57627;SDS011;43451;49.060;10.616;2023-11-21T00:13:03;2.95;;;1.70;;
57627;SDS011;43451;49.060;10.616;2023-11-21T00:15:29;3.88;;;1.90;;
57627;SDS011;43451;49.060;10.616;2023-11-21T00:17:54;5.38;;;1.65;;
57627;SDS011;43451;49.060;10.616;2023-11-21T00:20:20;2.35;;;1.38;;
57627;SDS011;43451;49.060;10.616;2023-11-21T00:22:46;5.93;;;1.67;;
57627;SDS011;43451;49.060;10.616;2023-11-21T00:25:13;3.77;;;1.60;;
57627;SDS011;43451;49.060;10.616;2023-11-21T00:27:41;3.72;;;1.67;;
57627;SDS011;43451;49.060;10.616;2023-11-21T00:30:07;5.35;;;1.80;;
57627;SDS011;43451;49.060;10.616;2023-11-21T00:32:35;3.10;;;1.30;;
57627;SDS011;43451;49.060;10.616;2023-11-21T00:35:01;4.63;;;1.73;;
57627;SDS011;43451;49.060;10.616;2023-11-21T00:37:27;5.82;;;1.60;;
57627;SDS011;43451;49.060;10.616;2023-11-21T00:39:52;3.17;;;1.52;;
57627;SDS011;43451;49.060;10.616;2023-11-21T00:42:18;4.43;;;1.75;;
57627;SDS011;43451;49.060;10.616;2023-11-21T00:44:43;2.80;;;1.50;;
57627;SDS011;43451;49.060;10.616;2023-11-21T00:47:09;4.15;;;1.30;;
57627;SDS011;43451;49.060;10.616;2023-11-21T00:49:34;2.83;;;1.15;;
57627;SDS011;43451;49.060;10.616;2023-11-21T00:52:00;5.32;;;1.20;;
57627;SDS011;43451;49.060;10.616;2023-11-21T00:54:26;4.38;;;1.15;;
57627;SDS011;43451;49.060;10.616;2023-11-21T00:56:52;2.88;;;1.50;;
57627;SDS011;43451;49.060;10.616;2023-11-21T00:59:17;2.70;;;1.00;;
57627;SDS011;43451;49.060;10.616;2023-11-21T01:01:43;2.72;;;1.10;;
57627;SDS011;43451;49.060;10.616;2023-11-21T01:04:09;3.83;;;1.23;;
57627;SDS011;43451;49.060;10.616;2023-11-21T01:06:35;3.97;;;1.20;;
57627;SDS011;43451;49.060;10.616;2023-11-21T01:09:00;1.73;;;0.90;;
57627;SDS011;43451;49.060;10.616;2023-11-21T01:11:26;3.22;;;0.90;;
57627;SDS011;43451;49.060;10.616;2023-11-21T01:13:51;2.08;;;0.82;;
57627;SDS011;43451;49.060;10.616;2023-11-21T01:16:18;2.95;;;0.93;;
57627;SDS011;43451;49.060;10.616;2023-11-21T01:18:43;3.47;;;1.35;;
57627;SDS011;43451;49.060;10.616;2023-11-21T01:21:09;3.95;;;0.80;;
57627;SDS011;43451;49.060;10.616;2023-11-21T01:23:34;3.38;;;0.80;;
57627;SDS011;43451;49.060;10.616;2023-11-21T01:26:00;2.42;;;1.08;;
57627;SDS011;43451;49.060;10.616;2023-11-21T01:28:25;2.50;;;0.90;;
57627;SDS011;43451;49.060;10.616;2023-11-21T01:30:51;2.05;;;1.00;;
57627;SDS011;43451;49.060;10.616;2023-11-21T01:33:18;2.45;;;0.70;;
57627;SDS011;43451;49.060;10.616;2023-11-21T01:35:43;1.42;;;0.75;;
57627;SDS011;43451;49.060;10.616;2023-11-21T01:38:09;3.28;;;0.95;;
57627;SDS011;43451;49.060;10.616;2023-11-21T01:40:35;1.48;;;0.70;;
57627;SDS011;43451;49.060;10.616;2023-11-21T01:43:00;3.33;;;0.80;;
57627;SDS011;43451;49.060;10.616;2023-11-21T01:45:28;1.63;;;0.88;;
57627;SDS011;43451;49.060;10.616;2023-11-21T01:47:56;3.70;;;0.80;;
57627;SDS011;43451;49.060;10.616;2023-11-21T01:50:21;2.15;;;0.60;;
57627;SDS011;43451;49.060;10.616;2023-11-21T01:52:49;3.53;;;0.88;;
57627;SDS011;43451;49.060;10.616;2023-11-21T01:55:16;2.20;;;0.80;;
57627;SDS011;43451;49.060;10.616;2023-11-21T01:57:45;3.88;;;0.90;;
57627;SDS011;43451;49.060;10.616;2023-11-21T02:00:11;2.45;;;1.02;;
57627;SDS011;43451;49.060;10.616;2023-11-21T02:02:43;3.13;;;0.93;;
57627;SDS011;43451;49.060;10.616;2023-11-21T02:05:13;5.28;;;1.27;;
57627;SDS011;43451;49.060;10.616;2023-11-21T02:07:40;4.10;;;1.00;;
57627;SDS011;43451;49.060;10.616;2023-11-21T02:10:08;2.35;;;1.00;;
57627;SDS011;43451;49.060;10.616;2023-11-21T02:12:34;3.45;;;1.30;;
57627;SDS011;43451;49.060;10.616;2023-11-21T02:15:03;2.63;;;1.25;;
57627;SDS011;43451;49.060;10.616;2023-11-21T02:17:35;3.38;;;1.30;;
57627;SDS011;43451;49.060;10.616;2023-11-21T02:20:00;4.85;;;1.42;;
57627;SDS011;43451;49.060;10.616;2023-11-21T02:22:30;2.22;;;1.30;;
57627;SDS011;43451;49.060;10.616;2023-11-21T02:24:57;4.97;;;1.38;;
57627;SDS011;43451;49.060;10.616;2023-11-21T02:27:23;3.80;;;1.30;;
57627;SDS011;43451;49.060;10.616;2023-11-21T02:29:49;4.25;;;1.42;;
57627;SDS011;43451;49.060;10.616;2023-11-21T02:32:14;2.67;;;1.30;;
57627;SDS011;43451;49.060;10.616;2023-11-21T02:34:42;3.53;;;1.23;;
57627;SDS011;43451;49.060;10.616;2023-11-21T02:37:08;3.65;;;1.50;;
57627;SDS011;43451;49.060;10.616;2023-11-21T02:39:35;2.88;;;1.50;;
57627;SDS011;43451;49.060;10.616;2023-11-21T02:42:00;4.55;;;1.50;;
57627;SDS011;43451;49.060;10.616;2023-11-21T02:44:26;1.98;;;1.20;;
57627;SDS011;43451;49.060;10.616;2023-11-21T02:46:51;5.43;;;1.45;;
57627;SDS011;43451;49.060;10.616;2023-11-21T02:49:17;3.22;;;1.77;;
57627;SDS011;43451;49.060;10.616;2023-11-21T02:51:42;5.28;;;1.58;;
57627;SDS011;43451;49.060;10.616;2023-11-21T02:54:08;4.72;;;1.92;;
57627;SDS011;43451;49.060;10.616;2023-11-21T02:56:34;3.75;;;2.00;;
57627;SDS011;43451;49.060;10.616;2023-11-21T02:59:00;6.10;;;2.30;;
57627;SDS011;43451;49.060;10.616;2023-11-21T03:01:25;3.42;;;2.00;;
57627;SDS011;43451;49.060;10.616;2023-11-21T03:03:53;6.20;;;2.13;;
57627;SDS011;43451;49.060;10.616;2023-11-21T03:06:21;7.50;;;2.40;;
57627;SDS011;43451;49.060;10.616;2023-11-21T03:08:47;4.90;;;2.22;;
57627;SDS011;43451;49.060;10.616;2023-11-21T03:11:13;3.65;;;2.05;;
57627;SDS011;43451;49.060;10.616;2023-11-21T03:13:40;7.07;;;2.30;;
57627;SDS011;43451;49.060;10.616;2023-11-21T03:16:08;6.95;;;2.55;;
57627;SDS011;43451;49.060;10.616;2023-11-21T03:18:37;5.30;;;2.35;;
57627;SDS011;43451;49.060;10.616;2023-11-21T03:21:03;5.65;;;2.60;;
57627;SDS011;43451;49.060;10.616;2023-11-21T03:23:30;4.38;;;2.63;;
57627;SDS011;43451;49.060;10.616;2023-11-21T03:25:56;5.57;;;2.40;;
57627;SDS011;43451;49.060;10.616;2023-11-21T03:28:21;7.95;;;3.10;;
57627;SDS011;43451;49.060;10.616;2023-11-21T03:30:47;6.63;;;2.70;;
57627;SDS011;43451;49.060;10.616;2023-11-21T03:33:13;5.40;;;2.75;;
57627;SDS011;43451;49.060;10.616;2023-11-21T03:35:38;5.47;;;2.20;;
57627;SDS011;43451;49.060;10.616;2023-11-21T03:38:04;5.20;;;2.40;;
57627;SDS011;43451;49.060;10.616;2023-11-21T03:40:29;5.45;;;2.40;;
57627;SDS011;43451;49.060;10.616;2023-11-21T03:42:56;4.47;;;2.17;;
57627;SDS011;43451;49.060;10.616;2023-11-21T03:45:22;4.65;;;2.53;;
57627;SDS011;43451;49.060;10.616;2023-11-21T03:47:48;4.82;;;2.22;;
57627;SDS011;43451;49.060;10.616;2023-11-21T03:50:13;6.05;;;2.53;;
57627;SDS011;43451;49.060;10.616;2023-11-21T03:52:39;5.38;;;2.38;;
57627;SDS011;43451;49.060;10.616;2023-11-21T03:55:04;6.30;;;2.38;;
57627;SDS011;43451;49.060;10.616;2023-11-21T03:57:30;6.20;;;2.60;;
57627;SDS011;43451;49.060;10.616;2023-11-21T03:59:55;4.53;;;2.38;;
57627;SDS011;43451;49.060;10.616;2023-11-21T04:02:21;3.55;;;2.10;;
57627;SDS011;43451;49.060;10.616;2023-11-21T04:04:47;5.32;;;2.58;;
57627;SDS011;43451;49.060;10.616;2023-11-21T04:07:12;8.02;;;2.55;;
57627;SDS011;43451;49.060;10.616;2023-11-21T04:09:38;4.07;;;2.40;;
57627;SDS011;43451;49.060;10.616;2023-11-21T04:12:05;5.35;;;2.40;;
57627;SDS011;43451;49.060;10.616;2023-11-21T04:14:30;6.38;;;2.70;;
57627;SDS011;43451;49.060;10.616;2023-11-21T04:16:56;4.68;;;2.40;;
57627;SDS011;43451;49.060;10.616;2023-11-21T04:19:22;5.72;;;2.25;;
57627;SDS011;43451;49.060;10.616;2023-11-21T04:21:48;4.88;;;2.50;;
57627;SDS011;43451;49.060;10.616;2023-11-21T04:24:13;6.07;;;2.30;;
57627;SDS011;43451;49.060;10.616;2023-11-21T04:26:39;5.40;;;2.50;;
57627;SDS011;43451;49.060;10.616;2023-11-21T04:29:04;5.32;;;2.50;;
57627;SDS011;43451;49.060;10.616;2023-11-21T04:31:30;4.68;;;2.20;;
57627;SDS011;43451;49.060;10.616;2023-11-21T04:33:55;5.53;;;2.30;;
57627;SDS011;43451;49.060;10.616;2023-11-21T04:36:21;5.18;;;2.20;;
57627;SDS011;43451;49.060;10.616;2023-11-21T04:38:47;7.93;;;2.85;;
57627;SDS011;43451;49.060;10.616;2023-11-21T06:12:01;5.63;;;2.92;;
57627;SDS011;43451;49.060;10.616;2023-11-21T06:14:28;5.90;;;2.80;;
57627;SDS011;43451;49.060;10.616;2023-11-21T06:16:53;5.07;;;2.70;;
57627;SDS011;43451;49.060;10.616;2023-11-21T06:19:20;4.55;;;3.10;;
57627;SDS011;43451;49.060;10.616;2023-11-21T06:21:46;4.38;;;3.17;;
57627;SDS011;43451;49.060;10.616;2023-11-21T06:24:12;4.50;;;3.08;;
57627;SDS011;43451;49.060;10.616;2023-11-21T06:26:37;5.40;;;3.17;;
57627;SDS011;43451;49.060;10.616;2023-11-21T06:29:03;6.47;;;3.75;;
57627;SDS011;43451;49.060;10.616;2023-11-21T06:31:29;6.93;;;3.10;;
57627;SDS011;43451;49.060;10.616;2023-11-21T06:33:55;4.10;;;3.10;;
57627;SDS011;43451;49.060;10.616;2023-11-21T06:36:20;4.30;;;3.40;;
57627;SDS011;43451;49.060;10.616;2023-11-21T06:38:46;6.38;;;3.13;;
57627;SDS011;43451;49.060;10.616;2023-11-21T06:41:11;4.82;;;3.20;;
57627;SDS011;43451;49.060;10.616;2023-11-21T06:43:40;8.40;;;3.90;;
57627;SDS011;43451;49.060;10.616;2023-11-21T06:46:06;5.57;;;3.58;;
57627;SDS011;43451;49.060;10.616;2023-11-21T06:48:31;7.47;;;3.67;;
57627;SDS011;43451;49.060;10.616;2023-11-21T06:50:57;6.95;;;3.70;;
57627;SDS011;43451;49.060;10.616;2023-11-21T06:53:23;6.38;;;3.50;;
57627;SDS011;43451;49.060;10.616;2023-11-21T06:55:48;6.65;;;3.55;;
57627;SDS011;43451;49.060;10.616;2023-11-21T06:58:14;5.40;;;3.75;;
57627;SDS011;43451;49.060;10.616;2023-11-21T07:00:39;5.22;;;4.13;;
57627;SDS011;43451;49.060;10.616;2023-11-21T07:03:05;8.25;;;4.13;;
57627;SDS011;43451;49.060;10.616;2023-11-21T07:05:31;8.75;;;4.07;;
57627;SDS011;43451;49.060;10.616;2023-11-21T07:07:56;7.60;;;4.22;;
57627;SDS011;43451;49.060;10.616;2023-11-21T07:10:21;5.82;;;3.95;;
57627;SDS011;43451;49.060;10.616;2023-11-21T07:12:47;10.27;;;3.88;;
57627;SDS011;43451;49.060;10.616;2023-11-21T07:15:12;7.80;;;4.13;;
57627;SDS011;43451;49.060;10.616;2023-11-21T07:17:38;8.30;;;3.92;;
57627;SDS011;43451;49.060;10.616;2023-11-21T07:20:05;8.85;;;4.43;;
57627;SDS011;43451;49.060;10.616;2023-11-21T07:22:31;6.90;;;4.30;;
57627;SDS011;43451;49.060;10.616;2023-11-21T07:24:57;6.68;;;3.97;;
57627;SDS011;43451;49.060;10.616;2023-11-21T07:27:22;6.93;;;3.95;;
57627;SDS011;43451;49.060;10.616;2023-11-21T07:29:48;6.72;;;4.32;;
57627;SDS011;43451;49.060;10.616;2023-11-21T07:32:14;7.78;;;4.43;;
57627;SDS011;43451;49.060;10.616;2023-11-21T07:34:40;6.63;;;4.00;;
57627;SDS011;43451;49.060;10.616;2023-11-21T07:37:06;6.50;;;3.80;;
57627;SDS011;43451;49.060;10.616;2023-11-21T07:39:33;5.68;;;3.95;;
57627;SDS011;43451;49.060;10.616;2023-11-21T07:41:59;7.93;;;4.10;;
57627;SDS011;43451;49.060;10.616;2023-11-21T07:44:25;5.40;;;3.85;;
57627;SDS011;43451;49.060;10.616;2023-11-21T07:46:51;8.10;;;3.70;;
57627;SDS011;43451;49.060;10.616;2023-11-21T07:49:16;6.68;;;3.90;;
57627;SDS011;43451;49.060;10.616;2023-11-21T07:51:45;6.20;;;3.95;;
57627;SDS011;43451;49.060;10.616;2023-11-21T07:54:11;6.93;;;3.55;;
57627;SDS011;43451;49.060;10.616;2023-11-21T09:27:23;3.80;;;2.65;;
57627;SDS011;43451;49.060;10.616;2023-11-21T09:29:50;4.07;;;2.70;;
57627;SDS011;43451;49.060;10.616;2023-11-21T09:32:18;3.80;;;2.47;;
57627;SDS011;43451;49.060;10.616;2023-11-21T09:34:44;3.78;;;2.33;;
57627;SDS011;43451;49.060;10.616;2023-11-21T09:37:10;4.70;;;3.08;;
57627;SDS011;43451;49.060;10.616;2023-11-21T09:39:35;3.58;;;3.03;;
57627;SDS011;43451;49.060;10.616;2023-11-21T09:42:07;3.45;;;2.72;;
57627;SDS011;43451;49.060;10.616;2023-11-21T09:44:45;4.47;;;3.20;;
57627;SDS011;43451;49.060;10.616;2023-11-21T09:47:14;5.13;;;2.60;;
57627;SDS011;43451;49.060;10.616;2023-11-21T09:49:41;3.85;;;3.17;;
57627;SDS011;43451;49.060;10.616;2023-11-21T09:52:12;5.18;;;3.20;;
57627;SDS011;43451;49.060;10.616;2023-11-21T11:36:34;3.47;;;2.00;;
57627;SDS011;43451;49.060;10.616;2023-11-21T13:09:52;2.70;;;1.80;;
57627;SDS011;43451;49.060;10.616;2023-11-21T14:43:05;3.55;;;2.25;;
57627;SDS011;43451;49.060;10.616;2023-11-21T14:45:31;2.65;;;2.30;;
57627;SDS011;43451;49.060;10.616;2023-11-21T14:47:58;4.90;;;2.35;;
57627;SDS011;43451;49.060;10.616;2023-11-21T14:50:51;2.88;;;2.30;;
57627;SDS011;43451;49.060;10.616;2023-11-21T14:53:16;3.03;;;2.42;;
57627;SDS011;43451;49.060;10.616;2023-11-21T14:55:56;4.32;;;2.60;;
57627;SDS011;43451;49.060;10.616;2023-11-21T14:58:24;3.28;;;2.72;;
57627;SDS011;43451;49.060;10.616;2023-11-21T15:00:53;4.60;;;2.83;;
57627;SDS011;43451;49.060;10.616;2023-11-21T15:03:26;4.32;;;2.97;;
57627;SDS011;43451;49.060;10.616;2023-11-21T15:05:55;4.88;;;3.33;;
57627;SDS011;43451;49.060;10.616;2023-11-21T15:08:22;5.07;;;3.65;;
57627;SDS011;43451;49.060;10.616;2023-11-21T15:10:55;5.10;;;3.45;;
57627;SDS011;43451;49.060;10.616;2023-11-21T15:13:21;4.88;;;3.40;;
57627;SDS011;43451;49.060;10.616;2023-11-21T15:15:48;5.97;;;3.78;;
57627;SDS011;43451;49.060;10.616;2023-11-21T15:18:14;4.75;;;3.65;;
57627;SDS011;43451;49.060;10.616;2023-11-21T15:20:40;4.93;;;3.78;;
57627;SDS011;43451;49.060;10.616;2023-11-21T16:50:51;9.65;;;6.97;;
57627;SDS011;43451;49.060;10.616;2023-11-21T16:53:17;9.90;;;6.47;;
57627;SDS011;43451;49.060;10.616;2023-11-21T16:55:43;11.73;;;6.93;;
57627;SDS011;43451;49.060;10.616;2023-11-21T16:58:08;13.70;;;9.02;;
57627;SDS011;43451;49.060;10.616;2023-11-21T17:00:34;11.38;;;8.07;;
57627;SDS011;43451;49.060;10.616;2023-11-21T18:30:38;6.75;;;4.55;;
57627;SDS011;43451;49.060;10.616;2023-11-21T18:33:04;8.48;;;5.03;;
57627;SDS011;43451;49.060;10.616;2023-11-21T18:35:30;10.15;;;5.93;;
57627;SDS011;43451;49.060;10.616;2023-11-21T20:08:44;9.63;;;6.43;;
57627;SDS011;43451;49.060;10.616;2023-11-21T21:41:27;13.35;;;5.78;;
57627;SDS011;43451;49.060;10.616;2023-11-21T23:11:35;3.60;;;3.00;;
57627;SDS011;43451;49.060;10.616;2023-11-21T23:14:01;4.65;;;3.22;;
57627;SDS011;43451;49.060;10.616;2023-11-21T23:16:26;5.68;;;3.42;;
57627;SDS011;43451;49.060;10.616;2023-11-21T23:18:52;5.15;;;3.40;;
57627;SDS011;43451;49.060;10.616;2023-11-21T23:21:18;5.07;;;3.20;;
57627;SDS011;43451;49.060;10.616;2023-11-21T23:23:43;5.45;;;3.00;;
57627;SDS011;43451;49.060;10.616;2023-11-21T23:26:09;5.25;;;3.40;;
57627;SDS011;43451;49.060;10.616;2023-11-21T23:28:35;4.45;;;3.00;;
57627;SDS011;43451;49.060;10.616;2023-11-21T23:31:01;5.10;;;3.10;;
57627;SDS011;43451;49.060;10.616;2023-11-21T23:33:26;4.82;;;3.25;;
57627;SDS011;43451;49.060;10.616;2023-11-21T23:35:56;4.75;;;3.28;;
57627;SDS011;43451;49.060;10.616;2023-11-21T23:38:24;4.78;;;3.28;;
57627;SDS011;43451;49.060;10.616;2023-11-21T23:40:50;4.75;;;3.10;;
57627;SDS011;43451;49.060;10.616;2023-11-21T23:43:15;5.70;;;3.70;;
57627;SDS011;43451;49.060;10.616;2023-11-21T23:45:41;5.97;;;3.65;;
57627;SDS011;43451;49.060;10.616;2023-11-21T23:48:06;4.95;;;3.10;;
57627;SDS011;43451;49.060;10.616;2023-11-21T23:50:32;5.22;;;3.50;;
57627;SDS011;43451;49.060;10.616;2023-11-21T23:52:58;5.72;;;3.75;;
57627;SDS011;43451;49.060;10.616;2023-11-21T23:55:23;5.30;;;3.30;;
57627;SDS011;43451;49.060;10.616;2023-11-21T23:57:48;4.50;;;2.92;;
